EDFH

Frankfurt-Hahn Airport

Hahn, Germany
METAR EDFH 201850Z 36008KT CAVOK 08/05 Q1030
Observed Flight Rules
Oct-20 @ 18:50 UTC (31 minutes ago) Visual Flight Rules
Wind Visibility Clouds
360° at 8 knots 10,000+ meters
  • Clear skies
Temperatures Readings
Current 8°C / 46°F
Dewpoint 5°C / 41°F
Humidity 82%
Altimeter 30.41" Hg
Pressure 1030 hPa
Elevation 498
METAR EDFH 201850Z 36008KT CAVOK 08/05 Q1030
Observed Flight Rules
Oct-20 @ 18:50 UTC
(31 minutes ago)
VFR
Wind Visibility
360° at 8 knots 10,000+ meters
Clouds
  • Clear skies
Temperature Dewpoint
8°C / 46°F 5°C / 41°F
Humidity Altimeter Pressure
82% 30.41" Hg 1030 hPa